createdAt,value
2023-05-23T00:01:43.082Z,3.65
2023-05-23T00:04:46.003Z,3.88
2023-05-23T00:07:50.279Z,5.50
2023-05-23T00:10:53.281Z,4.93
2023-05-23T00:13:57.500Z,6.22
2023-05-23T00:17:01.205Z,3.78
2023-05-23T00:20:04.330Z,2.67
2023-05-23T00:23:09.899Z,3.72
2023-05-23T00:26:12.862Z,3.38
2023-05-23T00:29:21.646Z,5.93
2023-05-23T00:32:24.864Z,2.90
2023-05-23T00:35:28.457Z,3.30
2023-05-23T00:38:33.037Z,5.82
2023-05-23T00:41:36.174Z,5.18
2023-05-23T00:44:39.107Z,4.28
2023-05-23T00:47:42.954Z,4.15
2023-05-23T00:50:46.899Z,4.60
2023-05-23T00:53:51.375Z,5.03
2023-05-23T00:56:54.708Z,4.60
2023-05-23T00:59:57.742Z,3.22
2023-05-23T01:03:01.313Z,4.85
2023-05-23T01:06:05.167Z,4.97
2023-05-23T01:09:09.770Z,4.90
2023-05-23T01:12:21.781Z,6.38
2023-05-23T01:15:30.212Z,4.63
2023-05-23T01:18:38.477Z,3.95
2023-05-23T01:21:41.986Z,3.15
2023-05-23T01:24:55.952Z,3.00
2023-05-23T01:28:04.135Z,2.60
2023-05-23T01:31:11.307Z,4.55
2023-05-23T01:34:15.494Z,3.03
2023-05-23T01:37:19.727Z,4.63
2023-05-23T01:40:23.322Z,4.90
2023-05-23T01:43:27.670Z,4.15
2023-05-23T01:46:31.989Z,3.35
2023-05-23T01:49:36.835Z,5.13
2023-05-23T01:52:40.718Z,2.25
2023-05-23T01:55:44.929Z,2.20
2023-05-23T01:58:49.280Z,4.05
2023-05-23T02:01:52.309Z,4.47
2023-05-23T02:04:57.484Z,3.85
2023-05-23T02:08:00.761Z,3.42
2023-05-23T02:11:03.676Z,3.95
2023-05-23T02:14:08.150Z,5.38
2023-05-23T02:17:11.357Z,2.10
2023-05-23T02:20:14.500Z,2.35
2023-05-23T02:23:17.436Z,5.22
2023-05-23T02:26:20.432Z,3.47
2023-05-23T02:29:24.653Z,3.22
2023-05-23T02:32:27.619Z,2.63
2023-05-23T02:35:32.479Z,4.18
2023-05-23T02:38:35.415Z,2.75
2023-05-23T02:41:38.404Z,3.88
2023-05-23T02:44:43.235Z,4.38
2023-05-23T02:47:46.129Z,2.65
2023-05-23T02:50:49.090Z,3.08
2023-05-23T02:53:51.983Z,3.25
2023-05-23T02:56:55.898Z,2.70
2023-05-23T03:00:00.298Z,5.00
2023-05-23T03:03:03.593Z,3.45
2023-05-23T03:06:07.125Z,2.42
2023-05-23T03:09:11.067Z,3.40
2023-05-23T03:12:13.893Z,4.13
2023-05-23T03:15:18.220Z,3.05
2023-05-23T03:18:21.611Z,2.08
2023-05-23T03:21:24.449Z,2.60
2023-05-23T03:24:27.279Z,4.15
2023-05-23T03:27:30.164Z,2.95
2023-05-23T03:30:34.390Z,4.05
2023-05-23T03:33:39.630Z,3.03
2023-05-23T03:36:43.277Z,3.25
2023-05-23T03:39:46.184Z,3.90
2023-05-23T03:42:50.123Z,3.17
2023-05-23T03:45:54.633Z,2.55
2023-05-23T03:48:57.520Z,2.05
2023-05-23T03:52:00.418Z,2.45
2023-05-23T03:55:05.454Z,2.33
2023-05-23T03:58:08.264Z,3.28
2023-05-23T04:01:12.553Z,3.20
2023-05-23T04:04:17.237Z,3.60
2023-05-23T04:07:20.188Z,2.42
2023-05-23T04:10:23.184Z,4.38
2023-05-23T04:13:26.391Z,2.35
2023-05-23T04:16:33.190Z,2.65
2023-05-23T04:19:36.775Z,3.08
2023-05-23T04:22:39.774Z,2.53
2023-05-23T04:25:43.112Z,2.67
2023-05-23T04:28:57.702Z,2.00
2023-05-23T04:32:02.035Z,2.53
2023-05-23T04:35:05.327Z,2.33
2023-05-23T04:38:10.465Z,2.67
2023-05-23T04:41:16.415Z,3.47
2023-05-23T04:44:20.173Z,2.20
2023-05-23T04:47:37.096Z,2.00
2023-05-23T04:50:44.487Z,4.00
2023-05-23T04:53:47.473Z,2.78
2023-05-23T04:56:50.600Z,2.55
2023-05-23T04:59:56.965Z,2.50
2023-05-23T05:03:01.325Z,3.40
2023-05-23T05:06:06.694Z,2.83
2023-05-23T05:09:10.086Z,2.17
2023-05-23T05:12:13.002Z,2.70
2023-05-23T05:15:17.686Z,2.38
2023-05-23T05:18:24.718Z,3.85
2023-05-23T05:21:27.693Z,2.40
2023-05-23T05:24:31.806Z,2.83
2023-05-23T05:27:34.707Z,1.95
2023-05-23T05:30:38.836Z,2.15
2023-05-23T05:33:46.035Z,2.72
2023-05-23T05:36:51.063Z,2.45
2023-05-23T05:39:55.334Z,2.78
2023-05-23T05:42:58.183Z,2.55
2023-05-23T05:46:01.407Z,2.55
2023-05-23T05:49:06.291Z,3.33
2023-05-23T05:52:10.004Z,2.58
2023-05-23T05:55:13.169Z,2.25
2023-05-23T05:58:20.817Z,2.50
2023-05-23T06:01:30.767Z,2.30
2023-05-23T06:04:35.030Z,3.30
2023-05-23T06:07:38.028Z,2.53
2023-05-23T06:10:42.438Z,3.58
2023-05-23T06:13:46.162Z,3.05
2023-05-23T06:16:49.133Z,2.75
2023-05-23T06:19:53.477Z,3.67
2023-05-23T06:22:56.863Z,2.90
2023-05-23T06:26:00.008Z,2.20
2023-05-23T06:29:02.829Z,2.28
2023-05-23T06:32:06.494Z,4.03
2023-05-23T06:35:11.383Z,1.85
2023-05-23T06:38:15.796Z,2.05
2023-05-23T06:41:20.490Z,2.53
2023-05-23T06:44:24.270Z,2.67
2023-05-23T06:47:30.351Z,3.05
2023-05-23T06:50:34.603Z,1.80
2023-05-23T06:53:37.846Z,3.20
2023-05-23T06:56:40.927Z,2.47
2023-05-23T06:59:44.157Z,3.45
2023-05-23T07:02:48.620Z,1.95
2023-05-23T07:05:56.465Z,2.78
2023-05-23T07:08:59.730Z,2.33
2023-05-23T07:12:03.436Z,2.58
2023-05-23T07:15:07.941Z,4.88
2023-05-23T07:18:16.596Z,2.00
2023-05-23T07:21:20.873Z,2.53
2023-05-23T07:24:25.438Z,3.67
2023-05-23T07:27:30.946Z,2.00
2023-05-23T07:30:34.528Z,5.53
2023-05-23T07:33:37.476Z,4.38
2023-05-23T07:36:43.044Z,3.47
2023-05-23T07:39:49.061Z,9.25
2023-05-23T07:42:53.203Z,11.15
2023-05-23T07:45:56.052Z,10.93
2023-05-23T07:48:58.950Z,3.45
2023-05-23T07:52:03.352Z,2.75
2023-05-23T07:55:10.312Z,2.42
2023-05-23T07:58:13.343Z,3.22
2023-05-23T08:01:18.428Z,3.15
2023-05-23T08:04:35.143Z,5.80
2023-05-23T08:07:42.099Z,6.93
2023-05-23T08:10:47.148Z,5.20
2023-05-23T08:13:58.457Z,5.75
2023-05-23T08:17:19.047Z,7.53
2023-05-23T08:20:22.803Z,6.78
2023-05-23T08:23:27.176Z,6.18
2023-05-23T08:26:34.783Z,6.63
2023-05-23T08:29:39.437Z,8.15
2023-05-23T08:32:43.074Z,7.22
2023-05-23T08:35:46.685Z,6.05
2023-05-23T08:38:52.869Z,8.57
2023-05-23T08:42:02.003Z,11.30
2023-05-23T08:45:05.838Z,10.50
2023-05-23T08:48:10.180Z,6.78
2023-05-23T08:51:18.855Z,6.60
2023-05-23T08:54:26.251Z,6.93
2023-05-23T08:57:30.511Z,8.57
2023-05-23T09:00:39.433Z,12.35
2023-05-23T09:03:43.210Z,11.90
2023-05-23T09:07:20.086Z,8.93
2023-05-23T09:10:29.917Z,6.35
2023-05-23T09:13:35.001Z,9.65
2023-05-23T09:16:40.893Z,9.60
2023-05-23T09:19:49.541Z,16.17
2023-05-23T09:23:13.950Z,11.98
2023-05-23T09:26:18.583Z,14.45
2023-05-23T09:29:22.307Z,12.02
2023-05-23T09:32:25.293Z,10.93
2023-05-23T09:35:30.036Z,8.65
2023-05-23T09:38:33.105Z,11.00
2023-05-23T09:41:37.580Z,11.98
2023-05-23T09:44:43.316Z,9.32
2023-05-23T09:47:52.122Z,7.47
2023-05-23T09:50:55.963Z,8.48
2023-05-23T09:53:59.227Z,12.45
2023-05-23T09:57:05.550Z,8.75
2023-05-23T10:00:11.224Z,12.32
2023-05-23T10:03:18.750Z,8.80
2023-05-23T10:06:26.910Z,8.60
2023-05-23T10:09:34.207Z,8.90
2023-05-23T10:12:48.801Z,10.32
2023-05-23T10:15:53.025Z,15.15
2023-05-23T10:19:00.431Z,7.93
2023-05-23T10:22:07.764Z,5.80
2023-05-23T10:25:11.363Z,12.88
2023-05-23T10:28:16.885Z,9.40
2023-05-23T10:31:20.886Z,6.25
2023-05-23T10:34:31.553Z,6.28
2023-05-23T10:37:41.923Z,19.27
2023-05-23T10:40:54.444Z,14.88
2023-05-23T10:44:13.337Z,7.82
2023-05-23T10:47:27.294Z,5.97
2023-05-23T10:50:34.495Z,10.02
2023-05-23T10:53:38.527Z,8.52
2023-05-23T10:56:41.455Z,9.93
2023-05-23T10:59:46.864Z,10.43
2023-05-23T11:02:56.420Z,6.85
2023-05-23T11:05:59.429Z,7.30
2023-05-23T11:09:08.233Z,8.48
2023-05-23T11:12:11.239Z,10.68
2023-05-23T11:15:22.446Z,7.32
2023-05-23T11:18:28.309Z,9.52
2023-05-23T11:21:32.179Z,11.48
2023-05-23T11:24:51.913Z,7.13
2023-05-23T11:27:55.317Z,7.68
2023-05-23T11:30:59.540Z,7.72
2023-05-23T11:34:02.837Z,7.70
2023-05-23T11:37:06.213Z,7.38
2023-05-23T11:40:29.596Z,8.07
2023-05-23T11:43:32.552Z,13.48
2023-05-23T11:46:36.960Z,10.98
2023-05-23T11:49:41.434Z,9.10
2023-05-23T11:52:44.628Z,8.38
2023-05-23T11:55:53.101Z,7.18
2023-05-23T11:58:58.372Z,9.65
2023-05-23T12:02:03.434Z,10.35
2023-05-23T12:05:09.473Z,11.88
2023-05-23T12:08:14.130Z,8.43
2023-05-23T12:11:17.847Z,13.13
2023-05-23T12:14:21.867Z,10.18
2023-05-23T12:17:26.172Z,8.98
2023-05-23T12:20:32.294Z,10.68
2023-05-23T12:23:36.514Z,11.85
2023-05-23T12:26:47.744Z,12.40
2023-05-23T12:30:05.232Z,12.32
2023-05-23T12:33:11.781Z,8.70
2023-05-23T12:36:15.102Z,8.00
2023-05-23T12:39:18.051Z,8.95
2023-05-23T12:42:20.900Z,11.70
2023-05-23T12:45:24.836Z,9.15
2023-05-23T12:48:29.090Z,15.48
2023-05-23T12:51:31.987Z,11.73
2023-05-23T12:54:34.808Z,11.25
2023-05-23T12:57:37.959Z,12.10
2023-05-23T13:00:41.009Z,13.32
2023-05-23T13:03:45.443Z,13.40
2023-05-23T13:06:48.344Z,10.23
2023-05-23T13:09:51.257Z,11.85
2023-05-23T13:12:54.146Z,9.73
2023-05-23T13:15:57.252Z,6.88
2023-05-23T13:19:01.587Z,9.15
2023-05-23T13:22:04.575Z,8.05
2023-05-23T13:25:08.871Z,8.43
2023-05-23T13:28:11.760Z,10.35
2023-05-23T13:31:14.690Z,8.45
2023-05-23T13:34:18.975Z,7.07
2023-05-23T13:37:21.850Z,10.45
2023-05-23T13:40:24.877Z,8.88
2023-05-23T13:43:27.756Z,6.18
2023-05-23T13:46:30.789Z,6.03
2023-05-23T13:49:35.045Z,9.52
2023-05-23T13:52:38.978Z,8.73
2023-05-23T13:55:43.778Z,7.95
2023-05-23T13:58:46.749Z,7.90
2023-05-23T14:01:49.761Z,8.35
2023-05-23T14:04:54.121Z,11.00
2023-05-23T14:07:57.082Z,7.03
2023-05-23T14:10:59.936Z,8.45
2023-05-23T14:14:02.794Z,8.25
2023-05-23T14:17:06.656Z,8.68
2023-05-23T14:20:11.660Z,5.65
2023-05-23T14:23:14.478Z,7.70
2023-05-23T14:26:17.424Z,9.30
2023-05-23T14:29:20.274Z,5.65
2023-05-23T14:32:23.391Z,8.18
2023-05-23T14:35:29.577Z,6.25
2023-05-23T14:38:32.448Z,8.75
2023-05-23T14:41:35.500Z,13.27
2023-05-23T14:44:38.416Z,9.48
2023-05-23T14:47:41.647Z,7.55
2023-05-23T14:50:46.365Z,8.23
2023-05-23T14:53:49.208Z,11.48
2023-05-23T14:56:53.070Z,11.02
2023-05-23T14:59:56.488Z,8.18
2023-05-23T15:02:59.371Z,9.20
2023-05-23T15:06:04.387Z,9.05
2023-05-23T15:09:07.501Z,7.43
2023-05-23T15:12:10.998Z,7.88
2023-05-23T15:15:13.972Z,7.28
2023-05-23T15:18:27.948Z,10.07
2023-05-23T15:21:36.208Z,13.57
2023-05-23T15:24:40.883Z,9.38
2023-05-23T15:27:44.864Z,7.32
2023-05-23T15:30:47.917Z,8.88
2023-05-23T15:33:50.809Z,7.00
2023-05-23T15:36:56.286Z,9.05
2023-05-23T15:39:59.219Z,6.47
2023-05-23T15:43:02.081Z,5.65
2023-05-23T15:46:05.815Z,10.13
2023-05-23T15:49:24.481Z,6.97
2023-05-23T15:52:29.883Z,7.70
2023-05-23T15:55:32.764Z,7.88
2023-05-23T15:58:35.726Z,5.75
2023-05-23T16:01:38.883Z,7.28
2023-05-23T16:04:41.788Z,6.85
2023-05-23T16:07:46.350Z,6.95
2023-05-23T16:10:49.208Z,7.20
2023-05-23T16:13:52.365Z,7.25
2023-05-23T16:16:55.233Z,10.30
2023-05-23T16:19:58.076Z,5.85
2023-05-23T16:23:02.784Z,7.35
2023-05-23T16:26:06.406Z,9.35
2023-05-23T16:29:11.350Z,8.88
2023-05-23T16:32:15.500Z,5.78
2023-05-23T16:35:18.520Z,9.70
2023-05-23T16:38:22.798Z,6.03
2023-05-23T16:41:25.690Z,5.20
2023-05-23T16:44:28.621Z,5.63
2023-05-23T16:47:31.717Z,5.43
2023-05-23T16:50:34.609Z,5.15
2023-05-23T16:53:38.885Z,6.03
2023-05-23T16:56:41.777Z,4.55
2023-05-23T16:59:44.666Z,5.18
2023-05-23T17:02:48.141Z,6.38
2023-05-23T17:05:51.440Z,6.15
2023-05-23T17:08:55.733Z,7.70
2023-05-23T17:11:58.735Z,6.78
2023-05-23T17:15:11.282Z,6.95
2023-05-23T17:18:14.164Z,6.60
2023-05-23T17:21:17.226Z,7.65
2023-05-23T17:24:21.445Z,5.60
2023-05-23T17:27:24.308Z,7.07
2023-05-23T17:30:28.279Z,5.57
2023-05-23T17:33:31.130Z,9.65
2023-05-23T17:36:35.091Z,5.75
2023-05-23T17:39:39.361Z,4.75
2023-05-23T17:42:43.274Z,6.90
2023-05-23T17:45:46.425Z,9.63
2023-05-23T17:48:49.253Z,6.78
2023-05-23T17:51:52.154Z,8.32
2023-05-23T17:54:57.500Z,8.77
2023-05-23T17:58:00.355Z,8.80
2023-05-23T18:01:03.488Z,7.75
2023-05-23T18:04:06.477Z,8.57
2023-05-23T18:07:12.799Z,9.88
2023-05-23T18:10:17.398Z,12.57
2023-05-23T18:13:20.271Z,9.80
2023-05-23T18:16:23.162Z,5.60
2023-05-23T18:19:26.108Z,7.70
2023-05-23T18:22:31.669Z,9.20
2023-05-23T18:25:36.466Z,3.75
2023-05-23T18:28:39.357Z,5.22
2023-05-23T18:31:42.350Z,8.88
2023-05-23T18:34:45.244Z,7.60
2023-05-23T18:37:48.291Z,10.48
2023-05-23T18:40:52.512Z,5.38
2023-05-23T18:43:55.491Z,6.88
2023-05-23T18:46:58.509Z,6.93
2023-05-23T18:50:01.618Z,5.15
2023-05-23T18:53:04.503Z,4.40
2023-05-23T18:56:08.707Z,3.55
2023-05-23T18:59:14.358Z,4.38
2023-05-23T19:02:17.499Z,4.50
2023-05-23T19:05:21.277Z,7.30
2023-05-23T19:08:24.146Z,3.28
2023-05-23T19:11:29.628Z,5.10
2023-05-23T19:14:32.486Z,4.07
2023-05-23T19:17:35.431Z,3.30
2023-05-23T19:20:38.299Z,5.65
2023-05-23T19:23:41.134Z,5.07
2023-05-23T19:26:45.366Z,4.18
2023-05-23T19:29:48.271Z,4.15
2023-05-23T19:32:51.240Z,3.42
2023-05-23T19:35:54.952Z,3.08
2023-05-23T19:38:57.875Z,3.72
2023-05-23T19:42:02.103Z,3.70
2023-05-23T19:45:05.791Z,3.33
2023-05-23T19:48:08.808Z,5.15
2023-05-23T19:51:12.121Z,5.25
2023-05-23T19:54:15.416Z,3.63
2023-05-23T19:57:20.094Z,11.00
2023-05-23T20:00:23.189Z,8.13
2023-05-23T20:03:26.127Z,4.80
2023-05-23T20:06:28.993Z,8.15
2023-05-23T20:09:32.066Z,6.18
2023-05-23T20:12:36.754Z,3.95
2023-05-23T20:15:40.649Z,5.20
2023-05-23T20:18:59.048Z,5.80
2023-05-23T20:22:02.349Z,10.38
2023-05-23T20:25:06.380Z,7.80
2023-05-23T20:28:10.634Z,10.63
2023-05-23T20:31:13.497Z,11.25
2023-05-23T20:34:16.439Z,7.50
2023-05-23T20:37:19.294Z,11.13
2023-05-23T20:40:22.724Z,9.27
2023-05-23T20:43:27.043Z,8.20
2023-05-23T20:46:29.926Z,13.02
2023-05-23T20:49:33.701Z,9.25
2023-05-23T20:52:38.355Z,12.88
2023-05-23T20:55:41.359Z,14.00
2023-05-23T20:58:45.962Z,12.82
2023-05-23T21:01:49.069Z,8.95
2023-05-23T21:04:52.025Z,9.20
2023-05-23T21:07:54.939Z,8.52
2023-05-23T21:10:57.830Z,12.60
2023-05-23T21:14:02.101Z,8.20
2023-05-23T21:17:05.380Z,9.02
2023-05-23T21:20:09.221Z,11.80
2023-05-23T21:23:12.117Z,10.25
2023-05-23T21:26:14.995Z,5.78
2023-05-23T21:29:19.175Z,8.98
2023-05-23T21:32:22.076Z,8.60
2023-05-23T21:35:26.099Z,7.20
2023-05-23T21:38:29.611Z,6.07
2023-05-23T21:41:32.515Z,8.45
2023-05-23T21:44:38.244Z,7.13
2023-05-23T21:47:43.041Z,7.93
2023-05-23T21:50:46.057Z,5.80
2023-05-23T21:53:48.932Z,8.00
2023-05-23T21:56:51.899Z,7.15
2023-05-23T21:59:56.164Z,7.05
2023-05-23T22:02:59.108Z,7.13
2023-05-23T22:06:01.999Z,7.07
2023-05-23T22:09:05.881Z,9.05
2023-05-23T22:12:09.109Z,10.73
2023-05-23T22:15:13.577Z,8.93
2023-05-23T22:18:16.442Z,6.55
2023-05-23T22:21:19.382Z,9.35
2023-05-23T22:24:22.265Z,9.23
2023-05-23T22:27:25.100Z,11.35
2023-05-23T22:30:29.480Z,10.68
2023-05-23T22:33:32.359Z,10.18
2023-05-23T22:36:36.529Z,7.97
2023-05-23T22:39:39.440Z,7.93
2023-05-23T22:42:42.272Z,5.57
2023-05-23T22:45:46.538Z,8.20
2023-05-23T22:48:49.631Z,6.32
2023-05-23T22:51:52.556Z,8.63
2023-05-23T22:54:55.482Z,7.60
2023-05-23T22:57:58.624Z,7.97
2023-05-23T23:01:02.901Z,6.82
2023-05-23T23:04:05.854Z,6.03
2023-05-23T23:07:09.247Z,5.75
2023-05-23T23:10:12.330Z,6.72
2023-05-23T23:13:15.275Z,7.65
2023-05-23T23:16:21.065Z,6.53
2023-05-23T23:19:24.027Z,4.60
2023-05-23T23:22:26.926Z,6.78
2023-05-23T23:25:30.370Z,6.72
2023-05-23T23:28:33.292Z,7.13
2023-05-23T23:31:37.536Z,6.13
2023-05-23T23:34:41.062Z,5.75
2023-05-23T23:37:43.888Z,6.75
2023-05-23T23:40:47.125Z,6.88
2023-05-23T23:43:49.969Z,6.30
2023-05-23T23:46:54.313Z,5.45
2023-05-23T23:49:57.232Z,6.20
2023-05-23T23:53:00.061Z,5.63
2023-05-23T23:56:02.940Z,4.90
2023-05-23T23:59:05.977Z,4.15
